createdAt,value
2018-12-25T00:00:13.628Z,98618.82
2018-12-25T00:02:43.500Z,98625.06
2018-12-25T00:05:13.337Z,98622.08
2018-12-25T00:07:43.234Z,98622.28
2018-12-25T00:10:12.927Z,98637.92
2018-12-25T00:12:42.695Z,98635.92
2018-12-25T00:15:12.593Z,98639.13
2018-12-25T00:18:01.678Z,98642.16
2018-12-25T00:20:33.340Z,98641.92
2018-12-25T00:23:22.291Z,98646.24
2018-12-25T00:25:52.215Z,98655.28
2018-12-25T00:28:22.049Z,98646.78
2018-12-25T00:31:11.280Z,98646.94
2018-12-25T00:33:41.039Z,98646.94
2018-12-25T00:36:10.808Z,98655.53
2018-12-25T00:38:40.543Z,98655.05
2018-12-25T00:41:10.292Z,98646.84
2018-12-25T00:43:40.047Z,98664.51
2018-12-25T00:46:09.975Z,98660.48
2018-12-25T00:48:39.656Z,98656.04
2018-12-25T00:51:09.470Z,98659.45
2018-12-25T00:53:39.315Z,98659.78
2018-12-25T00:56:28.471Z,98656.45
2018-12-25T00:58:58.329Z,98663.84
2018-12-25T01:01:28.053Z,98675.21
2018-12-25T01:03:57.846Z,98671.82
2018-12-25T01:06:27.616Z,98661.63
2018-12-25T01:08:57.310Z,98661.63
2018-12-25T01:11:27.085Z,98669.95
2018-12-25T01:14:16.173Z,98666.39
2018-12-25T01:17:19.328Z,98666.39
2018-12-25T01:19:49.180Z,98668.10
2018-12-25T01:22:18.968Z,98669.47
2018-12-25T01:25:08.135Z,98670.60
2018-12-25T01:27:37.899Z,98670.60
2018-12-25T01:30:07.770Z,98653.70
2018-12-25T01:32:37.479Z,98671.34
2018-12-25T01:35:07.159Z,98664.34
2018-12-25T01:37:36.931Z,98672.09
2018-12-25T01:40:26.180Z,98662.56
2018-12-25T01:43:15.336Z,98669.98
2018-12-25T01:45:45.165Z,98684.13
2018-12-25T01:48:14.861Z,98683.25
2018-12-25T01:51:04.055Z,98677.86
2018-12-25T01:53:33.875Z,98677.86
2018-12-25T01:56:03.644Z,98674.44
2018-12-25T01:58:33.376Z,98684.19
2018-12-25T02:01:03.211Z,98682.08
2018-12-25T02:03:33.003Z,98676.66
2018-12-25T02:06:02.879Z,98681.42
2018-12-25T02:08:51.904Z,98677.00
2018-12-25T02:11:41.080Z,98677.00
2018-12-25T02:14:11.008Z,98663.55
2018-12-25T02:17:00.256Z,98674.09
2018-12-25T02:19:30.123Z,98678.17
2018-12-25T02:21:59.915Z,98682.09
2018-12-25T02:24:29.636Z,98676.80
2018-12-25T02:26:59.359Z,98672.88
2018-12-25T02:29:29.120Z,98674.08
2018-12-25T02:32:19.894Z,98672.81
2018-12-25T02:34:49.584Z,98672.81
2018-12-25T02:37:19.303Z,98662.90
2018-12-25T02:39:49.038Z,98664.50
2018-12-25T02:42:38.060Z,98663.66
2018-12-25T02:45:07.883Z,98659.45
2018-12-25T02:47:37.607Z,98656.45
2018-12-25T02:50:07.300Z,98651.16
2018-12-25T02:52:56.509Z,98649.34
2018-12-25T02:55:26.284Z,98653.66
2018-12-25T02:57:55.953Z,98651.16
2018-12-25T03:00:25.843Z,98649.27
2018-12-25T03:02:55.625Z,98650.00
2018-12-25T03:05:25.469Z,98647.24
2018-12-25T03:07:55.210Z,98647.24
2018-12-25T03:10:44.356Z,98642.47
2018-12-25T03:13:14.097Z,98644.86
2018-12-25T03:15:43.871Z,98644.86
2018-12-25T03:18:13.551Z,98639.08
2018-12-25T03:20:43.322Z,98644.31
2018-12-25T03:23:32.456Z,98649.95
2018-12-25T03:26:21.543Z,98645.79
2018-12-25T03:28:51.265Z,98645.79
2018-12-25T03:31:21.065Z,98643.56
2018-12-25T03:34:09.953Z,98642.65
2018-12-25T03:36:39.650Z,98655.14
2018-12-25T03:39:09.426Z,98652.80
2018-12-25T03:41:39.334Z,98663.29
2018-12-25T03:44:28.371Z,98663.21
2018-12-25T03:46:58.210Z,98663.21
2018-12-25T03:49:47.367Z,98680.18
2018-12-25T03:52:36.617Z,98680.18
2018-12-25T03:55:25.674Z,98675.24
2018-12-25T03:58:08.240Z,98676.31
2018-12-25T04:00:38.064Z,98676.31
2018-12-25T04:03:07.873Z,98676.96
2018-12-25T04:05:37.632Z,98678.51
2018-12-25T04:08:26.763Z,98677.05
2018-12-25T04:10:56.564Z,98677.05
2018-12-25T04:13:26.363Z,98685.86
2018-12-25T04:15:56.122Z,98677.27
2018-12-25T04:18:45.293Z,98688.02
2018-12-25T04:21:15.007Z,98688.02
2018-12-25T04:23:44.879Z,98688.39
2018-12-25T04:26:34.103Z,98688.06
2018-12-25T04:29:23.211Z,98688.41
2018-12-25T04:32:12.380Z,98687.17
2018-12-25T04:35:01.436Z,98691.63
2018-12-25T04:37:44.045Z,98684.92
2018-12-25T04:40:13.733Z,98685.27
2018-12-25T04:42:43.435Z,98685.27
2018-12-25T04:45:32.515Z,98697.61
2018-12-25T04:48:14.855Z,98701.72
2018-12-25T04:50:44.657Z,98701.72
2018-12-25T04:53:33.819Z,98693.42
2018-12-25T04:56:03.635Z,98693.42
2018-12-25T04:58:52.838Z,98704.29
2018-12-25T05:01:22.853Z,98709.52
2018-12-25T05:03:52.643Z,98707.69
2018-12-25T05:06:22.477Z,98715.71
2018-12-25T05:08:52.257Z,98723.80
2018-12-25T05:11:22.066Z,98718.28
2018-12-25T05:13:51.980Z,98719.53
2018-12-25T05:16:21.752Z,98725.55
2018-12-25T05:19:10.935Z,98729.11
2018-12-25T05:21:53.243Z,98731.06
2018-12-25T05:24:22.970Z,98731.06
2018-12-25T05:27:12.068Z,98726.45
2018-12-25T05:29:41.853Z,98726.45
2018-12-25T05:32:11.547Z,98732.03
2018-12-25T05:34:41.361Z,98733.77
2018-12-25T05:37:11.138Z,98731.31
2018-12-25T05:39:40.924Z,98747.59
2018-12-25T05:42:10.827Z,98747.76
2018-12-25T05:44:40.654Z,98748.21
2018-12-25T05:47:10.364Z,98758.44
2018-12-25T05:49:40.214Z,98759.21
2018-12-25T05:52:29.290Z,98759.92
2018-12-25T05:54:59.117Z,98749.63
2018-12-25T05:57:28.995Z,98752.16
2018-12-25T05:59:58.799Z,98757.76
2018-12-25T06:02:47.996Z,98760.04
2018-12-25T06:05:19.330Z,98760.04
2018-12-25T06:07:49.168Z,98759.58
2018-12-25T06:10:19.019Z,98763.86
2018-12-25T06:12:48.717Z,98756.18
2018-12-25T06:15:18.429Z,98763.70
2018-12-25T06:18:07.518Z,98765.36
2018-12-25T06:20:37.231Z,98765.36
2018-12-25T06:23:07.022Z,98769.68
2018-12-25T06:25:56.333Z,98776.62
2018-12-25T06:28:26.065Z,98776.62
2018-12-25T06:31:15.233Z,98776.84
2018-12-25T06:33:45.074Z,98776.84
2018-12-25T06:36:14.802Z,98777.78
2018-12-25T06:38:44.669Z,98785.42
2018-12-25T06:41:14.489Z,98787.95
2018-12-25T06:43:44.176Z,98778.83
2018-12-25T06:46:33.323Z,98769.39
2018-12-25T06:49:03.011Z,98820.95
2018-12-25T06:51:52.237Z,98773.71
2018-12-25T06:54:41.468Z,98786.12
2018-12-25T06:57:30.562Z,98780.46
2018-12-25T07:00:19.595Z,98780.34
2018-12-25T07:02:49.422Z,98780.34
2018-12-25T07:05:19.263Z,98784.91
2018-12-25T07:07:49.136Z,98779.43
2018-12-25T07:10:18.974Z,98781.70
2018-12-25T07:12:48.771Z,98778.00
2018-12-25T07:15:37.998Z,98776.72
2018-12-25T07:18:07.699Z,98782.38
2018-12-25T07:20:37.492Z,98783.63
2018-12-25T07:23:07.293Z,98783.63
2018-12-25T07:25:37.114Z,98784.92
2018-12-25T07:28:41.183Z,98788.15
2018-12-25T07:31:10.973Z,98788.15
2018-12-25T07:34:00.097Z,98783.30
2018-12-25T07:36:29.784Z,98783.30
2018-12-25T07:38:59.490Z,98736.98
2018-12-25T07:41:48.585Z,98782.70
2018-12-25T07:44:30.975Z,98780.20
2018-12-25T07:47:20.143Z,98788.19
2018-12-25T07:50:09.182Z,98778.41
2018-12-25T07:52:39.014Z,98778.41
2018-12-25T07:55:08.790Z,98777.66
2018-12-25T07:57:38.621Z,98768.97
2018-12-25T08:00:27.790Z,98777.09
2018-12-25T08:02:57.624Z,98777.09
2018-12-25T08:05:27.350Z,98777.98
2018-12-25T08:07:57.171Z,98789.46
2018-12-25T08:10:46.341Z,98771.31
2018-12-25T08:13:16.226Z,98788.02
2018-12-25T08:15:45.933Z,98782.50
2018-12-25T08:18:15.718Z,98802.70
2018-12-25T08:20:45.617Z,98793.06
2018-12-25T08:23:34.723Z,98785.28
2018-12-25T08:26:17.703Z,98794.58
2018-12-25T08:28:47.495Z,98794.58
2018-12-25T08:31:17.213Z,98792.99
2018-12-25T08:33:47.047Z,98800.40
2018-12-25T08:36:36.519Z,98792.84
2018-12-25T08:39:27.245Z,98793.34
2018-12-25T08:41:57.160Z,98801.11
2018-12-25T08:44:27.025Z,98794.80
2018-12-25T08:47:02.455Z,98800.20
2018-12-25T08:49:47.805Z,98801.83
2018-12-25T08:52:17.714Z,98803.05
2018-12-25T08:54:47.468Z,98803.38
2018-12-25T08:57:17.260Z,98804.81
2018-12-25T09:00:46.317Z,98799.37
2018-12-25T09:03:15.956Z,98811.09
2018-12-25T09:05:45.783Z,98785.75
2018-12-25T09:08:15.709Z,98776.03
2018-12-25T09:10:45.500Z,98782.25
2018-12-25T09:13:15.366Z,98774.75
2018-12-25T09:16:04.735Z,98764.42
2018-12-25T09:18:34.562Z,98766.77
2018-12-25T09:21:04.315Z,98767.27
2018-12-25T09:23:34.241Z,98756.92
2018-12-25T09:26:04.039Z,98766.84
2018-12-25T09:28:53.245Z,98768.06
2018-12-25T09:31:23.088Z,98764.30
2018-12-25T09:33:52.879Z,98779.47
2018-12-25T09:36:22.743Z,98780.81
2018-12-25T09:38:52.552Z,98779.18
2018-12-25T09:41:22.398Z,98782.27
2018-12-25T09:44:32.119Z,98774.57
2018-12-25T09:47:01.888Z,98770.86
2018-12-25T09:49:32.564Z,98767.45
2018-12-25T09:52:02.370Z,98764.02
2018-12-25T09:54:32.076Z,98766.78
2018-12-25T09:57:01.881Z,98763.34
2018-12-25T09:59:51.010Z,98768.95
2018-12-25T10:02:20.850Z,98772.34
2018-12-25T10:04:50.614Z,98781.86
2018-12-25T10:07:20.460Z,98780.98
2018-12-25T10:09:50.149Z,98771.83
2018-12-25T10:12:19.921Z,98784.41
2018-12-25T10:14:49.753Z,98781.33
2018-12-25T10:17:19.525Z,98784.32
2018-12-25T10:19:49.291Z,98787.84
2018-12-25T10:22:19.099Z,98783.94
2018-12-25T10:24:48.797Z,98783.54
2018-12-25T10:27:18.578Z,98782.25
2018-12-25T10:29:48.349Z,98781.77
2018-12-25T10:32:18.241Z,98775.30
2018-12-25T10:34:47.964Z,98762.24
2018-12-25T10:37:17.814Z,98767.91
2018-12-25T10:39:47.582Z,98769.66
2018-12-25T10:42:36.799Z,98776.17
2018-12-25T10:45:06.569Z,98768.31
2018-12-25T10:47:36.581Z,98766.53
2018-12-25T10:50:46.297Z,98760.84
2018-12-25T10:53:28.447Z,98765.95
2018-12-25T10:55:58.279Z,98769.20
2018-12-25T10:58:28.130Z,98773.83
2018-12-25T11:01:37.865Z,98767.25
2018-12-25T11:04:07.529Z,98772.02
2018-12-25T11:06:37.266Z,98768.13
2018-12-25T11:09:07.179Z,98759.47
2018-12-25T11:11:36.954Z,98743.20
2018-12-25T11:14:06.745Z,98737.27
2018-12-25T11:16:36.474Z,98739.49
2018-12-25T11:19:06.252Z,98734.69
2018-12-25T11:21:36.067Z,98722.48
2018-12-25T11:24:05.879Z,98716.41
2018-12-25T11:26:35.602Z,98711.69
2018-12-25T11:29:05.309Z,98721.61
2018-12-25T11:31:35.043Z,98714.20
2018-12-25T11:34:04.807Z,98722.39
2018-12-25T11:36:34.649Z,98721.44
2018-12-25T11:39:44.364Z,98727.58
2018-12-25T11:42:14.134Z,98724.91
2018-12-25T11:45:03.306Z,98721.52
2018-12-25T11:47:52.404Z,98718.04
2018-12-25T11:50:22.190Z,98710.97
2018-12-25T11:52:52.085Z,98710.97
2018-12-25T11:55:21.802Z,98712.77
2018-12-25T11:57:51.699Z,98706.34
2018-12-25T12:00:21.467Z,98708.08
2018-12-25T12:02:51.235Z,98694.20
2018-12-25T12:05:21.116Z,98685.89
2018-12-25T12:07:50.814Z,98694.94
2018-12-25T12:10:40.041Z,98695.07
2018-12-25T12:13:10.014Z,98700.14
2018-12-25T12:15:39.720Z,98705.91
2018-12-25T12:18:28.936Z,98718.30
2018-12-25T12:20:58.719Z,98717.52
2018-12-25T12:23:28.480Z,98717.52
2018-12-25T12:26:09.922Z,98719.97
2018-12-25T12:28:59.178Z,98726.09
2018-12-25T12:31:29.187Z,98718.72
2018-12-25T12:33:58.988Z,98718.30
2018-12-25T12:36:28.701Z,98720.99
2018-12-25T12:38:58.468Z,98721.86
2018-12-25T12:41:28.236Z,98724.59
2018-12-25T12:44:17.462Z,98726.34
2018-12-25T12:46:47.322Z,98724.61
2018-12-25T12:49:17.106Z,98718.97
2018-12-25T12:51:47.216Z,98715.55
2018-12-25T12:54:16.998Z,98722.19
2018-12-25T12:56:47.098Z,98714.73
2018-12-25T12:59:17.190Z,98720.80
2018-12-25T13:02:06.358Z,98714.25
2018-12-25T13:04:36.252Z,98722.97
2018-12-25T13:07:06.100Z,98727.73
2018-12-25T13:09:35.882Z,98715.94
2018-12-25T13:12:05.737Z,98711.55
2018-12-25T13:14:35.694Z,98721.17
2018-12-25T13:17:05.241Z,98719.45
2018-12-25T13:19:54.507Z,98718.48
2018-12-25T13:22:43.789Z,98723.10
2018-12-25T13:25:15.448Z,98723.80
2018-12-25T13:27:46.798Z,98713.29
2018-12-25T13:30:16.709Z,98710.67
2018-12-25T13:33:05.994Z,98712.91
2018-12-25T13:38:45.257Z,98714.59
2018-12-25T13:41:15.184Z,98720.22
2018-12-25T13:43:45.050Z,98715.80
2018-12-25T13:46:34.195Z,98721.52
2018-12-25T13:49:03.957Z,98709.51
2018-12-25T13:51:33.835Z,98710.85
2018-12-25T13:54:23.022Z,98710.81
2018-12-25T13:56:52.879Z,98701.32
2018-12-25T13:59:22.635Z,98706.57
2018-12-25T14:01:52.459Z,98705.61
2018-12-25T14:04:22.227Z,98713.42
2018-12-25T14:06:52.051Z,98706.10
2018-12-25T14:09:21.908Z,98715.06
2018-12-25T14:11:51.709Z,98717.77
2018-12-25T14:14:21.551Z,98707.48
2018-12-25T14:16:51.342Z,98705.70
2018-12-25T14:19:21.129Z,98711.27
2018-12-25T14:21:50.819Z,98713.48
2018-12-25T14:24:20.755Z,98719.06
2018-12-25T14:26:50.513Z,98716.84
2018-12-25T14:29:20.299Z,98723.83
2018-12-25T14:31:50.046Z,98725.96
2018-12-25T14:34:19.889Z,98721.63
2018-12-25T14:36:49.634Z,98717.72
2018-12-25T14:39:19.654Z,98718.59
2018-12-25T14:41:49.450Z,98721.19
2018-12-25T14:44:19.223Z,98725.95
2018-12-25T14:46:49.138Z,98726.72
2018-12-25T14:49:18.990Z,98735.39
2018-12-25T14:52:08.280Z,98725.85
2018-12-25T14:54:38.158Z,98736.69
2018-12-25T14:57:07.903Z,98738.77
2018-12-25T15:02:17.825Z,98738.97
2018-12-25T15:04:47.605Z,98736.25
2018-12-25T15:07:17.445Z,98736.68
2018-12-25T15:10:39.887Z,98734.36
2018-12-25T15:13:09.777Z,98736.83
2018-12-25T15:15:39.554Z,98741.59
2018-12-25T15:18:09.325Z,98742.81
2018-12-25T15:20:39.130Z,98749.47
2018-12-25T15:23:09.006Z,98748.44
2018-12-25T15:25:38.859Z,98758.29
2018-12-25T15:28:08.813Z,98754.73
2018-12-25T15:30:38.713Z,98765.13
2018-12-25T15:33:08.461Z,98776.47
2018-12-25T15:35:38.302Z,98772.67
2018-12-25T15:38:08.068Z,98778.12
2018-12-25T15:40:38.281Z,98774.80
2018-12-25T15:43:08.034Z,98789.33
2018-12-25T15:45:37.801Z,98793.55
2018-12-25T15:48:07.546Z,98792.88
2018-12-25T15:53:18.579Z,98799.98
2018-12-25T15:56:07.730Z,98810.73
2018-12-25T15:58:37.547Z,98816.59
2018-12-25T16:01:07.282Z,98815.24
2018-12-25T16:03:37.137Z,98814.77
2018-12-25T16:06:07.242Z,98823.52
2018-12-25T16:08:37.114Z,98820.86
2018-12-25T16:11:06.981Z,98824.42
2018-12-25T16:13:36.718Z,98825.52
2018-12-25T16:16:25.860Z,98833.56
2018-12-25T16:18:55.775Z,98832.34
2018-12-25T16:21:25.457Z,98833.86
2018-12-25T16:24:14.682Z,98826.65
2018-12-25T16:29:53.779Z,98842.17
2018-12-25T16:32:23.632Z,98845.00
2018-12-25T16:34:53.807Z,98840.56
2018-12-25T16:38:03.531Z,98846.50
2018-12-25T16:40:33.358Z,98852.91
2018-12-25T16:43:03.227Z,98859.25
2018-12-25T16:45:32.991Z,98867.77
2018-12-25T16:48:22.099Z,98871.14
2018-12-25T16:50:52.267Z,98868.10
2018-12-25T16:53:22.172Z,98873.27
2018-12-25T16:55:51.880Z,98873.71
2018-12-25T16:58:21.757Z,98875.36
2018-12-25T17:00:51.620Z,98871.95
2018-12-25T17:03:21.520Z,98873.45
2018-12-25T17:05:51.347Z,98889.03
2018-12-25T17:08:21.342Z,98883.55
2018-12-25T17:10:51.217Z,98882.58
2018-12-25T17:13:21.362Z,98888.48
2018-12-25T17:15:51.085Z,98881.91
2018-12-25T17:18:20.890Z,98877.47
2018-12-25T17:21:10.126Z,98878.77
2018-12-25T17:23:40.001Z,98882.41
2018-12-25T17:28:58.375Z,98873.22
2018-12-25T17:31:28.181Z,98862.19
2018-12-25T17:33:58.064Z,98854.76
2018-12-25T17:36:28.276Z,98858.77
2018-12-25T17:38:58.290Z,98863.05
2018-12-25T17:41:28.130Z,98855.80
2018-12-25T17:43:57.937Z,98865.66
2018-12-25T17:46:47.200Z,98862.53
2018-12-25T17:49:16.997Z,98871.55
2018-12-25T17:51:46.772Z,98875.41
2018-12-25T17:54:16.676Z,98879.64
2018-12-25T17:56:46.625Z,98875.73
2018-12-25T17:59:16.427Z,98878.77
2018-12-25T18:01:46.299Z,98878.17
2018-12-25T18:04:56.060Z,98879.55
2018-12-25T18:07:25.904Z,98882.91
2018-12-25T18:09:55.718Z,98879.92
2018-12-25T18:12:25.810Z,98888.24
2018-12-25T18:14:55.808Z,98883.04
2018-12-25T18:17:25.788Z,98882.94
2018-12-25T18:19:55.842Z,98876.31
2018-12-25T18:23:00.670Z,98880.94
2018-12-25T18:25:30.490Z,98877.01
2018-12-25T18:28:19.847Z,98877.69
2018-12-25T18:30:49.927Z,98884.88
2018-12-25T18:33:19.933Z,98887.34
2018-12-25T18:35:50.020Z,98877.69
2018-12-25T18:38:20.066Z,98881.84
2018-12-25T18:40:49.919Z,98880.85
2018-12-25T18:43:19.684Z,98890.67
2018-12-25T18:46:08.947Z,98886.73
2018-12-25T18:48:38.833Z,98889.66
2018-12-25T18:51:09.202Z,98890.05
2018-12-25T18:53:39.126Z,98874.94
2018-12-25T18:56:09.401Z,98877.62
2018-12-25T18:58:58.706Z,98884.17
2018-12-25T19:01:48.083Z,98887.77
2018-12-25T19:04:20.182Z,98891.55
2018-12-25T19:06:50.087Z,98897.70
2018-12-25T19:09:21.032Z,98898.94
2018-12-25T19:11:51.034Z,98913.05
2018-12-25T19:14:20.889Z,98913.33
2018-12-25T19:16:51.636Z,98926.55
2018-12-25T19:19:41.624Z,98921.14
2018-12-25T19:22:13.538Z,98917.53
2018-12-25T19:24:44.075Z,98916.88
2018-12-25T19:27:16.679Z,98914.50
2018-12-25T19:29:46.640Z,98912.42
2018-12-25T19:32:16.700Z,98910.68
2018-12-25T19:34:46.628Z,98911.46
2018-12-25T19:40:45.003Z,98921.60
2018-12-25T19:43:14.918Z,98914.71
2018-12-25T19:45:44.836Z,98916.84
2018-12-25T19:48:15.267Z,98913.95
2018-12-25T19:50:46.488Z,98927.15
2018-12-25T19:53:16.550Z,98920.10
2018-12-25T19:55:46.453Z,98914.84
2018-12-25T19:58:16.404Z,98915.48
2018-12-25T20:00:46.281Z,98911.77
2018-12-25T20:03:16.592Z,98918.45
2018-12-25T20:06:25.052Z,98914.86
2018-12-25T20:09:28.837Z,98907.49
2018-12-25T20:12:37.316Z,98910.50
2018-12-25T20:15:45.766Z,98904.48
2018-12-25T20:18:54.284Z,98906.56
2018-12-25T20:21:41.370Z,98892.55
2018-12-25T20:24:52.825Z,98894.02
2018-12-25T20:28:14.975Z,98892.12
2018-12-25T20:31:20.216Z,98895.76
2018-12-25T20:34:23.551Z,98898.48
2018-12-25T20:37:32.004Z,98902.87
2018-12-25T20:40:40.749Z,98902.07
2018-12-25T20:43:44.064Z,98895.77
2018-12-25T20:46:52.484Z,98886.62
2018-12-25T20:50:02.333Z,98885.78
2018-12-25T20:53:10.873Z,98885.26
2018-12-25T20:56:19.355Z,98889.45
2018-12-25T20:59:22.491Z,98888.97
2018-12-25T21:02:25.467Z,98892.39
2018-12-25T21:05:27.537Z,98894.48
2018-12-25T21:08:31.003Z,98887.13
2018-12-25T21:11:34.210Z,98899.06
2018-12-25T21:14:37.807Z,98902.52
2018-12-25T21:17:46.297Z,98897.39
2018-12-25T21:20:56.083Z,98900.04
2018-12-25T21:24:04.550Z,98900.59
2018-12-25T21:27:13.035Z,98898.11
2018-12-25T21:29:44.496Z,98896.82
2018-12-25T21:32:14.628Z,98898.56
2018-12-25T21:34:44.617Z,98892.98
2018-12-25T21:37:14.741Z,98907.96
2018-12-25T21:39:44.639Z,98900.95
2018-12-25T21:42:14.605Z,98902.52
2018-12-25T21:44:44.596Z,98913.66
2018-12-25T21:47:14.642Z,98915.64
2018-12-25T21:50:24.364Z,98917.63
2018-12-25T21:52:54.157Z,98911.45
2018-12-25T21:56:04.046Z,98909.60
2018-12-25T21:58:34.014Z,98908.23
2018-12-25T22:01:03.919Z,98910.61
2018-12-25T22:03:33.840Z,98899.39
2018-12-25T22:06:05.109Z,98897.66
2018-12-25T22:08:54.782Z,98909.31
2018-12-25T22:11:24.619Z,98901.09
2018-12-25T22:14:13.831Z,98887.19
2018-12-25T22:17:02.965Z,98885.63
2018-12-25T22:19:45.749Z,98880.88
2018-12-25T22:22:15.659Z,98880.88
2018-12-25T22:25:17.517Z,98888.06
2018-12-25T22:27:47.322Z,98888.06
2018-12-25T22:30:36.522Z,98889.83
2018-12-25T22:33:20.646Z,98875.86
2018-12-25T22:36:09.861Z,98881.50
2018-12-25T22:38:39.738Z,98881.50
2018-12-25T22:41:09.436Z,98874.06
2018-12-25T22:43:39.241Z,98862.06
2018-12-25T22:46:28.247Z,98863.92
2018-12-25T22:49:17.413Z,98866.20
2018-12-25T22:51:47.353Z,98867.48
2018-12-25T22:54:17.264Z,98867.48
2018-12-25T22:56:47.116Z,98865.21
2018-12-25T22:59:17.032Z,98857.81
2018-12-25T23:01:46.914Z,98845.90
2018-12-25T23:04:16.675Z,98842.83
2018-12-25T23:06:46.499Z,98847.41
2018-12-25T23:09:16.358Z,98842.27
2018-12-25T23:11:46.134Z,98846.39
2018-12-25T23:14:15.962Z,98852.38
2018-12-25T23:17:05.295Z,98844.80
2018-12-25T23:19:47.983Z,98849.67
2018-12-25T23:22:17.770Z,98849.67
2018-12-25T23:24:47.676Z,98838.66
2018-12-25T23:27:17.519Z,98838.66
2018-12-25T23:30:06.681Z,98845.99
2018-12-25T23:33:09.506Z,98855.26
2018-12-25T23:35:58.686Z,98843.00
2018-12-25T23:38:28.553Z,98843.00
2018-12-25T23:40:58.409Z,98845.75
2018-12-25T23:43:28.428Z,98855.93
2018-12-25T23:46:17.629Z,98861.81
2018-12-25T23:49:06.934Z,98876.19
2018-12-25T23:51:36.939Z,98876.19
2018-12-25T23:54:06.728Z,98875.65
2018-12-25T23:56:36.603Z,98879.89
2018-12-25T23:59:25.830Z,98881.72
